Time;durP1;ratioP1;P1;durP2;ratioP2;P2;SDS_P1;SDS_P2;PMS_P1;PMS_P2;Temp;Humidity;BMP_temperature;BMP_pressure;BME280_temperature;BME280_humidity;BME280_pressure;Samples;Min_cycle;Max_cycle;Signal;HPM_P1;HPM_P2
2022/06/15 00:01:05;;;;;;;2.72;2.35;;;13.50;99.90;;;;;;5176574;28;20042;-60
2022/06/15 00:03:37;;;;;;;1.92;1.70;;;13.50;99.90;;;;;;5160949;28;20398;-62
2022/06/15 00:06:25;;;;;;;3.30;2.50;;;13.60;99.90;;;;;;5169145;28;20061;-61
2022/06/15 00:09:04;;;;;;;5.53;2.72;;;13.50;99.90;;;;;;5178052;28;20570;-61
2022/06/15 00:11:42;;;;;;;4.07;2.10;;;13.60;99.90;;;;;;5175939;28;20041;-61
2022/06/15 00:14:23;;;;;;;3.50;2.70;;;13.60;99.90;;;;;;5176730;28;20254;-60
2022/06/15 00:16:56;;;;;;;4.13;2.50;;;13.70;99.90;;;;;;5177758;28;20064;-59
2022/06/15 00:19:28;;;;;;;2.65;2.20;;;13.60;99.90;;;;;;5176336;28;20072;-60
2022/06/15 00:21:59;;;;;;;3.70;2.63;;;13.70;99.90;;;;;;5176299;28;20033;-60
2022/06/15 00:24:33;;;;;;;2.65;2.40;;;13.60;99.90;;;;;;5177561;28;20046;-60
2022/06/15 00:27:05;;;;;;;2.65;2.45;;;13.50;99.90;;;;;;5187517;28;20088;-61
2022/06/15 00:29:39;;;;;;;4.45;2.42;;;13.50;99.90;;;;;;5192500;28;20050;-60
2022/06/15 00:32:17;;;;;;;3.17;2.63;;;13.50;99.90;;;;;;5181105;28;20060;-60
2022/06/15 00:34:51;;;;;;;3.15;2.88;;;13.40;99.90;;;;;;5188944;28;20082;-61
2022/06/15 00:37:25;;;;;;;6.47;2.60;;;13.20;99.90;;;;;;5189506;28;20049;-60
2022/06/15 00:40:00;;;;;;;5.82;2.50;;;13.10;99.90;;;;;;5184517;28;20418;-60
2022/06/15 00:42:39;;;;;;;3.00;2.70;;;13.10;99.90;;;;;;5192183;28;20037;-60
2022/06/15 00:45:12;;;;;;;2.40;2.20;;;13.10;99.90;;;;;;5192137;28;20080;-59
2022/06/15 00:47:50;;;;;;;2.20;1.77;;;13.10;99.90;;;;;;5190910;28;20053;-60
2022/06/15 00:50:27;;;;;;;3.28;2.22;;;13.10;99.90;;;;;;5175069;28;20044;-60
2022/06/15 00:53:07;;;;;;;3.72;3.08;;;13.10;99.90;;;;;;5175913;28;20030;-60
2022/06/15 00:55:42;;;;;;;3.50;2.40;;;13.00;99.90;;;;;;5176058;28;20049;-61
2022/06/15 00:58:21;;;;;;;5.00;2.47;;;13.00;99.90;;;;;;5174809;28;20197;-60
2022/06/15 01:00:56;;;;;;;3.08;2.70;;;13.00;99.90;;;;;;5175822;28;20033;-61
2022/06/15 01:03:28;;;;;;;4.88;3.03;;;13.00;99.90;;;;;;5176016;28;20353;-61
2022/06/15 01:06:37;;;;;;;4.35;2.65;;;12.90;99.90;;;;;;5167706;28;20333;-61
2022/06/15 01:09:25;;;;;;;2.38;1.60;;;12.90;99.90;;;;;;5186561;28;20038;-59
2022/06/15 01:12:36;;;;;;;3.50;2.47;;;12.80;99.90;;;;;;5174888;28;20026;-60
2022/06/15 01:15:46;;;;;;;2.67;2.40;;;12.70;99.90;;;;;;5175741;28;20057;-61
2022/06/15 01:18:58;;;;;;;3.78;2.90;;;12.70;99.90;;;;;;5192606;28;20033;-62
2022/06/15 01:21:50;;;;;;;10.10;2.75;;;12.70;99.90;;;;;;5166591;28;20065;-59
2022/06/15 01:25:10;;;;;;;4.20;2.75;;;12.60;99.90;;;;;;5177314;28;20034;-60
2022/06/15 01:28:18;;;;;;;3.25;2.22;;;12.60;99.90;;;;;;5191124;28;20069;-60
2022/06/15 01:31:10;;;;;;;3.00;2.70;;;12.60;99.90;;;;;;5176480;28;20346;-60
2022/06/15 01:34:10;;;;;;;6.22;2.60;;;12.60;99.90;;;;;;5175752;28;20030;-60
2022/06/15 01:36:54;;;;;;;3.15;2.55;;;12.60;99.90;;;;;;5175510;28;20034;-63
2022/06/15 01:39:48;;;;;;;2.70;2.50;;;12.70;99.90;;;;;;5194565;28;20048;-60
2022/06/15 01:42:58;;;;;;;2.65;2.45;;;12.60;99.90;;;;;;5175020;28;20034;-60
2022/06/15 01:45:34;;;;;;;3.92;2.72;;;12.60;99.90;;;;;;5163841;28;20037;-59
2022/06/15 01:48:09;;;;;;;3.25;2.88;;;12.60;99.90;;;;;;5162567;28;20235;-60
2022/06/15 01:50:57;;;;;;;2.92;2.42;;;12.50;99.90;;;;;;5178068;28;20654;-61
2022/06/15 01:53:57;;;;;;;2.50;2.30;;;12.50;99.90;;;;;;5165845;28;20054;-60
2022/06/15 01:56:40;;;;;;;4.07;2.78;;;12.50;99.90;;;;;;5173810;28;20276;-60
2022/06/15 01:59:28;;;;;;;2.80;2.60;;;12.40;99.90;;;;;;5179138;28;20060;-61
2022/06/15 02:02:33;;;;;;;4.72;2.85;;;12.40;99.90;;;;;;5177900;28;20048;-59
2022/06/15 02:05:48;;;;;;;3.75;2.63;;;12.40;99.90;;;;;;5151214;28;20061;-60
2022/06/15 02:08:55;;;;;;;2.50;2.22;;;12.40;99.90;;;;;;5182446;28;20049;-61
2022/06/15 02:11:34;;;;;;;3.92;3.35;;;12.30;99.90;;;;;;5188244;28;20052;-62
2022/06/15 02:14:33;;;;;;;6.25;3.13;;;12.30;99.90;;;;;;5160260;28;20049;-60
2022/06/15 02:17:19;;;;;;;4.95;2.72;;;12.30;99.90;;;;;;5194974;28;20041;-61
2022/06/15 02:20:15;;;;;;;4.40;2.60;;;12.30;99.90;;;;;;5194365;28;20040;-60
2022/06/15 02:22:51;;;;;;;3.47;3.17;;;12.30;99.90;;;;;;5179567;28;20064;-60
2022/06/15 02:25:33;;;;;;;3.53;2.85;;;12.30;99.90;;;;;;5184288;28;20040;-60
2022/06/15 02:28:08;;;;;;;5.72;3.53;;;12.30;99.90;;;;;;5195379;28;20029;-61
2022/06/15 02:30:42;;;;;;;3.22;2.92;;;12.20;99.90;;;;;;5190253;28;20052;-60
2022/06/15 02:33:31;;;;;;;4.63;2.97;;;12.10;99.90;;;;;;5177763;28;20042;-60
2022/06/15 02:36:06;;;;;;;4.28;2.95;;;12.00;99.90;;;;;;5176222;28;20038;-61
2022/06/15 02:38:42;;;;;;;4.07;2.47;;;12.00;99.90;;;;;;5172646;28;20038;-60
2022/06/15 02:41:14;;;;;;;3.83;2.85;;;12.00;99.90;;;;;;5176033;28;20033;-61
2022/06/15 02:43:50;;;;;;;4.18;2.85;;;12.00;99.90;;;;;;5181862;28;20616;-60
2022/06/15 02:46:23;;;;;;;4.13;3.30;;;12.10;99.90;;;;;;5194220;28;20368;-61
2022/06/15 02:48:58;;;;;;;3.55;3.00;;;12.10;99.90;;;;;;5177661;28;20044;-61
2022/06/15 02:52:02;;;;;;;3.40;3.05;;;12.10;99.90;;;;;;5193184;28;20055;-60
2022/06/15 02:54:59;;;;;;;5.85;3.47;;;12.10;99.90;;;;;;5161173;28;20034;-62
2022/06/15 02:57:30;;;;;;;4.25;2.90;;;12.10;99.90;;;;;;5176695;28;20046;-60
2022/06/15 03:00:05;;;;;;;4.53;3.10;;;12.00;99.90;;;;;;5177111;28;20394;-61
2022/06/15 03:02:36;;;;;;;;;;;12.00;99.90;;;;;;5176002;28;20056;-61
2022/06/15 03:05:08;;;;;;;4.82;3.33;;;12.10;99.90;;;;;;5174858;28;19925;-62
2022/06/15 03:07:42;;;;;;;6.85;3.40;;;12.00;99.90;;;;;;5185383;28;20042;-61
2022/06/15 03:10:14;;;;;;;3.83;3.17;;;12.00;99.90;;;;;;5159926;28;20046;-61
2022/06/15 03:12:51;;;;;;;4.95;3.50;;;12.10;99.90;;;;;;5192278;28;20037;-61
2022/06/15 03:15:25;;;;;;;3.45;2.83;;;12.10;99.90;;;;;;5193176;28;20026;-62
2022/06/15 03:18:03;;;;;;;3.38;2.67;;;12.20;99.90;;;;;;5176370;28;20048;-62
2022/06/15 03:20:36;;;;;;;5.72;3.30;;;12.30;99.90;;;;;;5178028;28;20034;-62
2022/06/15 03:23:09;;;;;;;4.07;3.15;;;12.50;99.90;;;;;;5192260;28;20040;-62
2022/06/15 03:25:43;;;;;;;5.22;3.22;;;12.50;99.90;;;;;;5176005;28;20032;-61
2022/06/15 03:28:14;;;;;;;3.45;2.50;;;12.60;99.90;;;;;;5177676;28;20200;-62
2022/06/15 03:30:48;;;;;;;5.00;2.83;;;12.70;99.90;;;;;;5192493;28;20041;-62
2022/06/15 03:33:20;;;;;;;8.15;3.20;;;12.90;99.90;;;;;;5160432;28;20169;-62
2022/06/15 03:35:54;;;;;;;3.10;2.90;;;13.00;99.90;;;;;;5160177;28;20041;-62
2022/06/15 03:38:31;;;;;;;2.45;2.25;;;13.20;99.90;;;;;;5178187;28;20050;-62
2022/06/15 03:41:07;;;;;;;3.92;2.80;;;13.30;99.90;;;;;;5175759;28;20026;-62
2022/06/15 03:43:41;;;;;;;2.65;2.42;;;13.50;99.90;;;;;;5191812;28;20042;-63
2022/06/15 03:46:18;;;;;;;8.15;3.15;;;13.70;99.90;;;;;;5178131;28;20040;-62
2022/06/15 03:48:52;;;;;;;3.20;2.80;;;13.90;99.90;;;;;;5176040;28;20045;-62
2022/06/15 03:51:29;;;;;;;2.85;2.65;;;14.10;99.90;;;;;;5192192;28;20049;-62
2022/06/15 03:54:03;;;;;;;3.00;2.53;;;14.20;99.90;;;;;;5178178;28;20145;-61
2022/06/15 03:56:49;;;;;;;3.22;2.92;;;14.40;99.90;;;;;;5177003;28;20036;-62
2022/06/15 03:59:22;;;;;;;8.00;3.13;;;14.70;99.90;;;;;;5178521;28;20486;-61
2022/06/15 04:01:58;;;;;;;4.22;3.00;;;14.90;99.90;;;;;;5178160;28;20200;-61
2022/06/15 04:04:29;;;;;;;3.20;2.40;;;15.10;99.90;;;;;;5196040;28;20612;-61
2022/06/15 04:07:01;;;;;;;4.07;2.67;;;15.20;99.90;;;;;;5191213;28;20270;-62
2022/06/15 04:09:35;;;;;;;3.95;3.55;;;15.20;99.90;;;;;;5192802;28;20021;-62
2022/06/15 04:12:09;;;;;;;6.53;2.67;;;15.30;99.90;;;;;;5190948;28;20037;-61
2022/06/15 04:14:41;;;;;;;;;;;15.60;99.90;;;;;;5184382;28;20033;-62
2022/06/15 04:17:20;;;;;;;7.05;2.38;;;15.90;99.90;;;;;;5176016;28;20045;-62
2022/06/15 04:22:44;;;;;;;3.58;2.75;;;16.20;99.90;;;;;;5176557;28;20034;-61
2022/06/15 04:25:16;;;;;;;2.88;2.50;;;16.30;99.90;;;;;;5172112;28;20389;-62
2022/06/15 04:27:50;;;;;;;2.22;2.03;;;16.60;99.90;;;;;;5155905;28;20045;-62
2022/06/15 04:30:28;;;;;;;2.97;2.20;;;16.80;99.90;;;;;;5155364;28;20038;-61
2022/06/15 04:33:03;;;;;;;3.03;2.70;;;17.00;99.90;;;;;;5191147;28;20216;-61
2022/06/15 04:35:37;;;;;;;;;;;17.10;99.90;;;;;;5191875;28;20655;-61
2022/06/15 04:38:10;;;;;;;3.10;2.00;;;17.20;99.90;;;;;;5176357;28;19910;-61
2022/06/15 04:40:44;;;;;;;6.03;3.20;;;17.40;99.90;;;;;;5191153;28;20032;-61
2022/06/15 04:43:15;;;;;;;3.30;2.30;;;17.60;99.90;;;;;;5176222;28;20038;-62
2022/06/15 04:45:53;;;;;;;3.58;2.25;;;17.60;99.90;;;;;;5175455;28;20033;-62
2022/06/15 04:48:24;;;;;;;2.38;2.00;;;17.70;99.90;;;;;;5160274;28;20053;-62
2022/06/15 04:50:56;;;;;;;4.13;2.75;;;17.80;99.90;;;;;;5173939;28;20056;-61
2022/06/15 04:53:27;;;;;;;3.70;2.55;;;17.90;99.90;;;;;;5191509;28;20048;-61
2022/06/15 04:56:01;;;;;;;2.85;1.95;;;17.90;99.90;;;;;;5175976;28;20057;-60
2022/06/15 04:58:39;;;;;;;5.53;2.42;;;18.10;99.90;;;;;;5169570;28;20046;-61
2022/06/15 05:01:12;;;;;;;7.82;2.38;;;18.20;99.90;;;;;;5189087;28;20361;-61
2022/06/15 05:03:46;;;;;;;2.83;2.28;;;18.40;99.90;;;;;;5190881;28;20067;-61
2022/06/15 05:06:17;;;;;;;;;;;18.40;99.90;;;;;;5152249;28;20077;-61
2022/06/15 05:08:49;;;;;;;6.93;2.72;;;18.30;99.90;;;;;;5172652;28;19918;-61
2022/06/15 05:11:31;;;;;;;5.07;2.58;;;18.30;99.90;;;;;;5173427;28;20088;-62
2022/06/15 05:14:05;;;;;;;3.45;2.85;;;18.40;99.90;;;;;;5186439;28;20158;-61
2022/06/15 05:16:40;;;;;;;2.47;2.17;;;18.60;99.90;;;;;;5176233;28;20030;-62
2022/06/15 05:19:12;;;;;;;3.53;2.33;;;18.70;99.90;;;;;;5190805;28;20052;-64
2022/06/15 05:21:48;;;;;;;6.80;2.72;;;19.10;99.90;;;;;;5191842;28;20287;-61
2022/06/15 05:24:19;;;;;;;3.25;2.28;;;19.10;99.90;;;;;;5181573;28;20042;-62
2022/06/15 05:26:50;;;;;;;4.38;2.85;;;19.30;99.90;;;;;;5195387;28;20219;-60
2022/06/15 05:29:25;;;;;;;4.40;2.58;;;19.60;99.90;;;;;;5194034;28;20235;-62
2022/06/15 05:31:56;;;;;;;5.10;3.15;;;19.50;99.90;;;;;;5180966;28;20045;-60
2022/06/15 05:34:30;;;;;;;3.50;2.83;;;19.20;99.90;;;;;;5181007;28;20212;-61
2022/06/15 05:37:02;;;;;;;3.95;2.70;;;19.30;99.90;;;;;;5181069;28;20202;-61
2022/06/15 05:39:39;;;;;;;7.07;2.70;;;19.30;99.90;;;;;;5179372;28;20029;-61
2022/06/15 05:42:12;;;;;;;6.68;2.53;;;19.60;99.90;;;;;;5176284;28;20136;-61
2022/06/15 05:47:15;;;;;;;2.58;1.92;;;20.40;99.90;;;;;;5193908;28;20050;-61
2022/06/15 05:49:47;;;;;;;2.45;1.90;;;20.70;99.90;;;;;;5178961;28;20034;-62
2022/06/15 05:52:19;;;;;;;5.88;2.40;;;21.10;99.90;;;;;;5191692;28;20361;-62
2022/06/15 05:54:58;;;;;;;3.72;2.40;;;21.30;99.90;;;;;;5178932;28;20052;-62
2022/06/15 05:57:29;;;;;;;3.17;2.83;;;21.60;99.90;;;;;;5179140;28;20052;-62
2022/06/15 06:00:03;;;;;;;3.78;2.22;;;22.00;99.90;;;;;;5178278;28;20033;-61
2022/06/15 06:02:43;;;;;;;2.33;2.13;;;22.20;99.90;;;;;;5178563;28;20053;-61
2022/06/15 06:05:15;;;;;;;6.05;2.45;;;22.50;99.90;;;;;;5175958;28;20061;-60
2022/06/15 06:07:49;;;;;;;3.05;2.60;;;22.50;99.90;;;;;;5185574;28;20017;-63
2022/06/15 06:10:20;;;;;;;4.20;2.50;;;22.40;99.90;;;;;;5178654;28;20041;-62
2022/06/15 06:12:54;;;;;;;2.83;2.47;;;22.30;99.90;;;;;;5179000;28;20042;-62
2022/06/15 06:15:26;;;;;;;3.60;2.83;;;22.60;99.90;;;;;;5193842;28;20060;-61
2022/06/15 06:18:01;;;;;;;8.50;3.53;;;22.70;99.90;;;;;;5193366;28;20603;-63
2022/06/15 06:20:32;;;;;;;2.97;2.17;;;22.90;99.90;;;;;;5193129;28;20337;-62
2022/06/15 06:23:06;;;;;;;9.68;2.33;;;23.40;99.90;;;;;;5192841;28;20060;-62
2022/06/15 06:25:38;;;;;;;4.65;2.22;;;23.80;99.90;;;;;;5178838;28;20129;-63
2022/06/15 06:28:40;;;;;;;2.85;2.55;;;23.70;99.90;;;;;;5193952;28;20247;-61
2022/06/15 06:31:19;;;;;;;2.47;2.03;;;23.70;99.90;;;;;;5176727;28;20042;-63
2022/06/15 06:33:54;;;;;;;2.97;2.67;;;24.20;99.90;;;;;;5192296;28;20052;-61
2022/06/15 06:36:52;;;;;;;3.22;2.40;;;24.20;99.90;;;;;;5178775;28;20028;-61
2022/06/15 06:39:29;;;;;;;3.85;2.35;;;24.40;99.90;;;;;;5176388;28;20046;-62
2022/06/15 06:42:11;;;;;;;5.00;2.55;;;24.40;99.90;;;;;;5193794;28;20429;-62
2022/06/15 06:44:48;;;;;;;4.07;2.40;;;24.40;99.90;;;;;;5165294;28;20038;-62
2022/06/15 06:47:22;;;;;;;2.00;1.77;;;24.70;99.90;;;;;;5173389;28;20041;-62
2022/06/15 06:49:54;;;;;;;2.42;2.00;;;25.00;99.90;;;;;;5175783;28;20032;-62
2022/06/15 06:52:27;;;;;;;3.83;1.95;;;25.20;99.90;;;;;;5176958;28;20049;-63
2022/06/15 06:54:59;;;;;;;4.00;2.20;;;25.40;99.90;;;;;;5175519;28;20372;-63
2022/06/15 06:57:37;;;;;;;2.15;1.90;;;25.10;99.90;;;;;;5178571;28;20436;-62
2022/06/15 07:00:10;;;;;;;3.90;2.33;;;25.00;99.90;;;;;;5188809;28;20060;-61
2022/06/15 07:02:41;;;;;;;4.50;2.85;;;25.20;99.90;;;;;;5167729;28;20052;-62
2022/06/15 07:05:12;;;;;;;5.63;2.60;;;25.30;99.90;;;;;;5165668;28;20045;-61
2022/06/15 07:07:45;;;;;;;2.72;2.05;;;25.40;99.90;;;;;;5177051;28;20034;-61
2022/06/15 07:10:26;;;;;;;2.63;2.20;;;25.70;99.90;;;;;;5177655;28;20367;-62
2022/06/15 07:12:57;;;;;;;2.22;2.03;;;26.20;99.90;;;;;;5156505;28;20032;-64
2022/06/15 07:15:31;;;;;;;2.47;2.00;;;26.00;99.90;;;;;;5154811;28;20030;-61
2022/06/15 07:18:03;;;;;;;7.35;2.22;;;25.60;99.90;;;;;;5163452;28;20063;-62
2022/06/15 07:20:36;;;;;;;6.03;2.60;;;25.60;99.90;;;;;;5159286;28;20238;-62
2022/06/15 07:23:07;;;;;;;3.88;1.80;;;26.10;99.90;;;;;;5172653;28;20045;-61
2022/06/15 07:25:41;;;;;;;3.15;2.10;;;26.40;99.90;;;;;;5163899;28;20235;-62
2022/06/15 07:28:15;;;;;;;2.38;1.90;;;26.10;99.90;;;;;;5169570;28;20050;-63
2022/06/15 07:30:49;;;;;;;3.73;2.33;;;26.20;99.90;;;;;;5172568;28;20457;-62
2022/06/15 07:33:21;;;;;;;2.72;1.70;;;26.60;99.90;;;;;;5150587;28;20431;-63
2022/06/15 07:35:52;;;;;;;2.60;2.15;;;26.70;99.90;;;;;;5161925;28;20034;-62
2022/06/15 07:38:24;;;;;;;1.95;1.63;;;26.60;99.90;;;;;;5147369;28;20125;-61
2022/06/15 07:40:59;;;;;;;3.60;2.00;;;26.30;99.90;;;;;;5157449;28;20049;-62
2022/06/15 07:43:31;;;;;;;2.63;1.92;;;26.00;99.90;;;;;;5142670;28;20026;-63
2022/06/15 07:46:06;;;;;;;2.83;2.03;;;26.50;99.90;;;;;;5188549;28;20030;-62
2022/06/15 07:51:38;;;;;;;2.47;1.70;;;26.70;99.90;;;;;;5155593;28;20022;-62
2022/06/15 07:54:13;;;;;;;2.10;1.85;;;27.10;99.90;;;;;;5156611;28;20042;-61
2022/06/15 07:56:47;;;;;;;1.83;1.73;;;27.00;99.90;;;;;;5157296;28;20042;-62
2022/06/15 07:59:22;;;;;;;2.10;1.83;;;26.70;99.90;;;;;;5159972;28;20414;-62
2022/06/15 08:02:03;;;;;;;4.32;2.17;;;27.40;99.90;;;;;;5155699;28;20358;-62
2022/06/15 08:04:38;;;;;;;3.22;1.90;;;27.20;99.90;;;;;;5151644;28;20056;-63
2022/06/15 08:07:12;;;;;;;3.35;1.80;;;27.10;99.90;;;;;;5183053;28;20050;-61
2022/06/15 08:09:47;;;;;;;1.90;1.48;;;27.00;99.90;;;;;;5156744;28;20046;-62
2022/06/15 08:12:23;;;;;;;2.38;1.60;;;27.60;99.90;;;;;;5156597;28;20224;-61
2022/06/15 08:15:03;;;;;;;4.60;2.08;;;28.00;99.90;;;;;;5155049;28;20054;-61
2022/06/15 08:17:50;;;;;;;3.15;1.90;;;27.10;99.90;;;;;;5171967;28;20036;-63
2022/06/15 08:20:36;;;;;;;1.77;1.65;;;27.00;99.90;;;;;;5155012;28;20053;-61
2022/06/15 08:23:20;;;;;;;3.67;1.70;;;26.80;99.90;;;;;;5183121;28;20034;-61
2022/06/15 08:25:59;;;;;;;3.10;1.58;;;26.80;99.90;;;;;;5190436;28;20034;-61
2022/06/15 08:28:41;;;;;;;4.07;1.75;;;27.30;99.90;;;;;;5168942;28;20053;-61
2022/06/15 08:31:13;;;;;;;1.65;1.55;;;28.20;99.90;;;;;;5187334;28;20038;-62
2022/06/15 08:33:45;;;;;;;3.00;1.80;;;28.10;99.90;;;;;;5143583;28;20041;-61
2022/06/15 08:36:16;;;;;;;1.95;1.73;;;28.70;99.90;;;;;;5151725;28;20238;-62
2022/06/15 08:38:56;;;;;;;3.30;1.60;;;28.20;99.90;;;;;;5149559;28;20042;-62
2022/06/15 08:41:47;;;;;;;1.63;1.50;;;28.60;99.90;;;;;;5150976;28;20049;-62
2022/06/15 08:44:46;;;;;;;2.63;1.90;;;28.70;99.90;;;;;;5156039;28;20253;-62
2022/06/15 08:47:30;;;;;;;2.80;1.75;;;29.00;99.90;;;;;;5156135;28;20041;-64
2022/06/15 08:50:19;;;;;;;1.60;1.50;;;29.10;99.90;;;;;;5174048;28;20057;-62
2022/06/15 08:53:17;;;;;;;1.70;1.60;;;29.70;99.90;;;;;;5155358;28;20052;-63
2022/06/15 08:56:06;;;;;;;1.92;1.50;;;29.80;99.90;;;;;;5154079;28;20057;-62
2022/06/15 08:59:02;;;;;;;3.13;1.88;;;28.10;99.90;;;;;;5158373;28;20239;-63
2022/06/15 09:02:12;;;;;;;2.35;1.55;;;28.50;99.90;;;;;;5183334;28;20046;-62
2022/06/15 09:05:40;;;;;;;2.40;1.90;;;29.00;99.90;;;;;;5151573;28;20239;-62
2022/06/15 09:08:51;;;;;;;1.90;1.70;;;28.60;99.90;;;;;;5144620;28;20057;-62
2022/06/15 09:11:49;;;;;;;3.78;2.17;;;29.10;99.90;;;;;;5158285;28;20042;-62
2022/06/15 09:14:27;;;;;;;1.75;1.38;;;29.40;99.90;;;;;;5154745;28;20052;-62
2022/06/15 09:17:14;;;;;;;1.88;1.63;;;29.30;99.90;;;;;;5170422;28;20212;-64
2022/06/15 09:20:31;;;;;;;2.58;1.58;;;29.10;99.90;;;;;;5182409;28;20040;-61
2022/06/15 09:23:09;;;;;;;2.90;1.38;;;29.10;99.90;;;;;;5168674;28;20043;-62
2022/06/15 09:25:56;;;;;;;2.30;1.48;;;29.90;99.90;;;;;;5175521;28;20340;-62
2022/06/15 09:28:40;;;;;;;1.67;1.40;;;29.40;99.90;;;;;;5168997;28;20215;-62
2022/06/15 09:31:28;;;;;;;1.88;1.67;;;29.50;99.90;;;;;;5188147;28;20049;-63
2022/06/15 09:34:05;;;;;;;2.95;1.55;;;29.50;99.90;;;;;;5173887;28;20048;-62
2022/06/15 09:36:51;;;;;;;7.18;1.40;;;28.50;99.90;;;;;;5163457;28;20031;-64
2022/06/15 09:39:27;;;;;;;1.63;1.50;;;29.40;99.90;;;;;;5170505;28;20026;-62
2022/06/15 09:42:21;;;;;;;2.17;1.50;;;29.40;99.90;;;;;;5151543;28;20248;-63
2022/06/15 09:45:10;;;;;;;2.58;1.50;;;30.00;99.90;;;;;;5165138;28;20448;-62
2022/06/15 09:48:02;;;;;;;2.15;1.50;;;30.50;99.90;;;;;;5157603;28;20038;-62
2022/06/15 09:51:17;;;;;;;1.70;1.60;;;30.70;99.90;;;;;;5173458;28;20038;-62
2022/06/15 09:54:00;;;;;;;1.73;1.42;;;30.30;99.90;;;;;;5138836;28;20221;-63
2022/06/15 09:56:34;;;;;;;2.33;2.13;;;30.50;99.90;;;;;;5162107;28;20045;-62
2022/06/15 09:59:14;;;;;;;3.70;1.60;;;30.60;99.90;;;;;;5170939;28;20555;-63
2022/06/15 10:01:49;;;;;;;1.50;1.40;;;31.40;99.90;;;;;;5166533;28;20038;-62
2022/06/15 10:04:34;;;;;;;1.33;1.23;;;31.50;99.90;;;;;;5165449;28;20310;-62
2022/06/15 10:07:37;;;;;;;1.95;1.85;;;31.40;99.90;;;;;;5153066;28;20061;-63
2022/06/15 10:10:44;;;;;;;2.28;1.30;;;31.10;99.90;;;;;;5158287;28;20034;-62
2022/06/15 10:13:18;;;;;;;2.47;1.60;;;30.30;99.90;;;;;;5170738;28;20364;-62
2022/06/15 10:16:00;;;;;;;2.78;1.50;;;30.70;99.90;;;;;;5188220;28;20050;-62
2022/06/15 10:18:59;;;;;;;1.55;1.30;;;30.00;99.90;;;;;;5158252;28;20038;-62
2022/06/15 10:21:35;;;;;;;1.63;1.25;;;30.50;99.90;;;;;;5157485;28;20046;-61
2022/06/15 10:24:24;;;;;;;1.58;1.48;;;30.60;99.90;;;;;;5158729;28;20038;-65
2022/06/15 10:27:31;;;;;;;1.60;1.50;;;30.80;99.90;;;;;;5175646;28;20052;-63
2022/06/15 10:30:23;;;;;;;1.30;1.20;;;31.80;99.90;;;;;;5158455;28;20428;-62
2022/06/15 10:33:02;;;;;;;1.58;1.48;;;32.40;99.90;;;;;;5155704;28;20557;-62
2022/06/15 10:35:36;;;;;;;1.50;1.40;;;32.90;99.90;;;;;;5180002;28;20068;-62
2022/06/15 10:38:21;;;;;;;2.03;1.50;;;32.50;99.90;;;;;;5160199;28;20030;-63
2022/06/15 10:43:56;;;;;;;1.70;1.23;;;33.10;99.90;;;;;;5168876;28;20031;-62
2022/06/15 10:46:56;;;;;;;1.50;1.40;;;32.20;99.90;;;;;;5153248;28;20308;-62
2022/06/15 10:49:35;;;;;;;1.63;1.48;;;31.60;99.90;;;;;;5151195;28;20037;-63
2022/06/15 10:52:35;;;;;;;1.50;1.40;;;32.40;99.90;;;;;;5187116;28;20050;-64
2022/06/15 11:02:42;;;;;;;4.43;1.45;;;35.50;99.90;;;;;;5162326;28;20057;-61
2022/06/15 11:05:19;;;;;;;1.60;1.50;;;34.00;99.90;;;;;;5168628;28;20056;-62
2022/06/15 11:07:59;;;;;;;2.63;1.73;;;33.60;99.90;;;;;;5167482;28;20337;-61
2022/06/15 11:10:42;;;;;;;2.42;1.27;;;34.60;99.90;;;;;;5193185;28;20359;-61
2022/06/15 11:13:20;;;;;;;1.75;1.63;;;34.90;99.90;;;;;;5156975;28;20278;-61
2022/06/15 11:19:03;;;;;;;1.83;1.40;;;34.20;99.90;;;;;;5176329;28;20042;-62
2022/06/15 11:22:12;;;;;;;1.98;1.60;;;33.70;99.90;;;;;;5172722;28;20030;-61
2022/06/15 11:25:03;;;;;;;1.40;1.30;;;32.40;99.90;;;;;;5161228;28;20065;-62
2022/06/15 11:27:54;;;;;;;3.22;1.52;;;33.20;99.90;;;;;;5190483;28;20030;-61
2022/06/15 11:30:34;;;;;;;2.20;1.70;;;34.10;99.90;;;;;;5193532;28;20034;-62
2022/06/15 11:33:22;;;;;;;3.17;1.20;;;34.20;99.90;;;;;;5173542;28;20038;-61
2022/06/15 11:36:13;;;;;;;1.95;1.67;;;34.70;99.90;;;;;;5159971;28;20042;-62
2022/06/15 11:39:17;;;;;;;1.55;1.45;;;35.70;99.90;;;;;;5159456;28;20219;-63
2022/06/15 11:41:56;;;;;;;1.75;1.60;;;36.20;99.90;;;;;;5187505;28;20038;-62
2022/06/15 11:44:34;;;;;;;1.65;1.55;;;35.40;99.90;;;;;;5174569;28;20034;-63
2022/06/15 11:47:19;;;;;;;1.58;1.48;;;35.30;99.90;;;;;;5186453;28;20227;-61
2022/06/15 11:49:52;;;;;;;1.65;1.50;;;34.40;99.90;;;;;;5176778;28;20036;-63
2022/06/15 11:53:02;;;;;;;1.75;1.33;;;34.20;99.90;;;;;;5174371;28;20438;-61
2022/06/15 11:56:11;;;;;;;3.35;1.55;;;35.00;99.90;;;;;;5174023;28;20326;-62
2022/06/15 11:58:58;;;;;;;1.80;1.58;;;35.80;99.90;;;;;;5157650;28;20030;-63
2022/06/15 12:01:48;;;;;;;2.05;1.63;;;35.50;99.90;;;;;;5152319;28;20053;-61
2022/06/15 12:04:51;;;;;;;1.70;1.60;;;36.00;99.90;;;;;;5154355;28;20038;-61
2022/06/15 12:07:40;;;;;;;2.83;1.58;;;37.40;99.90;;;;;;5168686;28;20042;-63
2022/06/15 12:10:42;;;;;;;2.63;1.48;;;38.30;99.90;;;;;;5179219;28;20049;-63
2022/06/15 12:13:27;;;;;;;1.60;1.50;;;38.40;99.90;;;;;;5165094;28;20046;-62
2022/06/15 12:16:09;;;;;;;1.25;1.15;;;38.00;99.90;;;;;;5192161;28;20247;-62
2022/06/15 12:18:54;;;;;;;2.05;1.40;;;37.20;99.90;;;;;;5189581;28;20077;-62
2022/06/15 12:21:55;;;;;;;1.80;1.70;;;38.00;99.90;;;;;;5175200;28;20048;-61
2022/06/15 12:24:38;;;;;;;1.58;1.48;;;36.60;99.90;;;;;;5158216;28;20038;-62
2022/06/15 12:27:49;;;;;;;1.67;1.58;;;36.10;99.90;;;;;;5136948;28;20034;-63
2022/06/15 12:30:50;;;;;;;1.38;1.30;;;36.80;99.90;;;;;;5159518;28;20042;-62
2022/06/15 12:34:01;;;;;;;2.50;1.60;;;36.70;99.90;;;;;;5157363;28;20254;-63
2022/06/15 12:37:01;;;;;;;1.65;1.35;;;35.70;99.90;;;;;;5169584;28;20034;-62
2022/06/15 12:39:55;;;;;;;2.25;1.48;;;36.30;99.90;;;;;;5173072;28;20030;-61
2022/06/15 12:42:32;;;;;;;14.63;2.95;;;34.70;99.90;;;;;;5179252;28;20029;-62
2022/06/15 12:45:19;;;;;;;2.50;1.73;;;34.10;99.90;;;;;;5149601;28;20057;-62
2022/06/15 12:47:59;;;;;;;1.67;1.50;;;33.40;99.90;;;;;;5157105;28;20030;-62
2022/06/15 12:50:37;;;;;;;3.35;1.40;;;33.60;99.90;;;;;;5158254;28;20046;-63
2022/06/15 12:53:38;;;;;;;2.22;1.30;;;34.10;99.90;;;;;;5161455;28;20056;-62
2022/06/15 12:57:09;;;;;;;1.63;1.40;;;36.30;99.90;;;;;;5176840;28;20033;-62
2022/06/15 13:00:08;;;;;;;1.63;1.48;;;38.00;99.90;;;;;;5157691;28;20060;-62
2022/06/15 13:03:19;;;;;;;2.22;1.85;;;38.00;99.90;;;;;;5157276;28;20571;-61
2022/06/15 13:06:25;;;;;;;1.50;1.35;;;39.10;99.90;;;;;;5170150;28;20042;-63
2022/06/15 13:09:23;;;;;;;1.70;1.60;;;38.70;99.90;;;;;;5192737;28;20330;-64
2022/06/15 13:12:10;;;;;;;1.50;1.40;;;38.60;99.90;;;;;;5179947;28;20487;-62
2022/06/15 13:14:44;;;;;;;2.38;2.15;;;39.00;99.90;;;;;;5187599;28;20246;-62
2022/06/15 13:17:25;;;;;;;1.65;1.55;;;38.40;99.90;;;;;;5198512;28;20042;-62
2022/06/15 13:20:12;;;;;;;1.50;1.40;;;37.50;99.90;;;;;;5204070;28;20041;-62
2022/06/15 13:22:48;;;;;;;1.60;1.50;;;36.30;99.90;;;;;;5195473;28;20040;-62
2022/06/15 13:25:23;;;;;;;1.50;1.40;;;36.10;99.90;;;;;;5208767;28;20033;-62
2022/06/15 13:28:02;;;;;;;1.70;1.60;;;37.20;99.90;;;;;;5178056;28;20037;-62
2022/06/15 13:30:48;;;;;;;1.52;1.42;;;38.10;99.90;;;;;;5177697;28;20352;-63
2022/06/15 13:33:20;;;;;;;1.50;1.40;;;38.10;99.90;;;;;;5190098;28;20046;-63
2022/06/15 13:36:12;;;;;;;1.48;1.38;;;37.20;99.90;;;;;;5188815;28;20049;-62
2022/06/15 13:38:46;;;;;;;2.35;1.60;;;38.30;99.70;;;;;;5188783;28;20042;-61
2022/06/15 13:41:21;;;;;;;2.42;1.75;;;37.30;99.70;;;;;;5176637;28;20042;-62
2022/06/15 13:43:56;;;;;;;1.90;1.73;;;36.60;99.50;;;;;;5175943;28;20061;-62
2022/06/15 13:46:35;;;;;;;1.63;1.52;;;35.50;99.90;;;;;;5188813;28;20251;-63
2022/06/15 13:49:25;;;;;;;1.90;1.80;;;35.40;99.90;;;;;;5196788;28;20033;-63
2022/06/15 13:52:03;;;;;;;1.75;1.63;;;34.40;99.90;;;;;;5179599;28;20044;-61
2022/06/15 13:55:18;;;;;;;1.63;1.52;;;34.30;99.90;;;;;;5185447;28;20311;-62
2022/06/15 13:58:44;;;;;;;1.50;1.40;;;35.10;99.90;;;;;;5189161;28;20038;-61
2022/06/15 14:02:15;;;;;;;1.65;1.55;;;33.30;99.90;;;;;;5212189;28;20129;-61
2022/06/15 14:05:28;;;;;;;1.50;1.40;;;32.10;99.90;;;;;;5111867;28;20058;-61
2022/06/15 14:08:46;;;;;;;1.60;1.30;;;31.40;99.90;;;;;;5098937;29;20040;-61
2022/06/15 14:11:36;;;;;;;2.70;1.75;;;32.70;99.90;;;;;;5081864;29;20066;-63
2022/06/15 14:14:39;;;;;;;1.40;1.30;;;35.80;99.90;;;;;;5094360;29;20066;-65
2022/06/15 14:18:07;;;;;;;1.52;1.42;;;36.30;99.90;;;;;;5098260;29;20050;-62
2022/06/15 14:20:47;;;;;;;1.45;1.35;;;37.00;99.90;;;;;;5097626;29;20035;-62
2022/06/15 14:23:38;;;;;;;1.77;1.33;;;36.80;99.90;;;;;;5087459;29;20050;-65
2022/06/15 14:26:15;;;;;;;1.63;1.33;;;36.40;99.90;;;;;;5115552;29;20175;-62
2022/06/15 14:28:54;;;;;;;1.77;1.50;;;37.60;99.60;;;;;;5096836;29;20394;-62
2022/06/15 14:31:35;;;;;;;2.13;1.48;;;38.00;99.30;;;;;;5096432;29;20024;-62